Time;durP1;ratioP1;P1;durP2;ratioP2;P2;SDS_P1;SDS_P2;PMS_P1;PMS_P2;Temp;Humidity;BMP_temperature;BMP_pressure;BME280_temperature;BME280_humidity;BME280_pressure;Samples;Min_cycle;Max_cycle;Signal;HPM_P1;HPM_P2
2021/04/08 00:01:35;;;;;;;13.20;8.73;;;;;;;2.85;67.76;99864.77;2219179;78;29602;-65
2021/04/08 00:04:37;;;;;;;12.80;9.15;;;;;;;2.88;67.65;99868.66;2237264;78;27712;-65
2021/04/08 00:07:40;;;;;;;13.18;8.50;;;;;;;2.89;67.74;99869.08;2246364;78;29338;-67
2021/04/08 00:10:42;;;;;;;12.50;8.60;;;;;;;2.92;67.74;99866.80;2219417;80;31139;-68
2021/04/08 00:13:44;;;;;;;10.25;8.10;;;;;;;2.93;67.84;99867.21;2226427;78;33983;-66
2021/04/08 00:16:46;;;;;;;11.45;8.35;;;;;;;2.90;67.71;99866.81;2253274;78;29128;-65
2021/04/08 00:19:48;;;;;;;13.60;8.98;;;;;;;2.87;67.65;99871.73;2256008;78;27733;-65
2021/04/08 00:22:51;;;;;;;12.18;8.65;;;;;;;2.88;67.81;99869.98;2217329;80;29270;-65
2021/04/08 00:25:54;;;;;;;11.30;8.08;;;;;;;2.87;67.95;99873.53;2251704;78;31194;-65
2021/04/08 00:28:57;;;;;;;10.82;7.78;;;;;;;2.85;67.88;99878.84;2258572;78;33116;-65
2021/04/08 00:31:59;;;;;;;11.15;8.60;;;;;;;2.83;67.94;99887.73;2259451;78;29592;-64
2021/04/08 00:35:01;;;;;;;13.62;7.97;;;;;;;2.80;68.21;99886.05;2235387;78;28261;-65
2021/04/08 00:38:03;;;;;;;10.88;7.90;;;;;;;2.76;68.26;99889.66;2233548;78;28801;-65
2021/04/08 00:41:05;;;;;;;10.98;8.30;;;;;;;2.72;68.39;99880.05;2242884;78;31201;-66
2021/04/08 00:44:07;;;;;;;13.30;9.28;;;;;;;2.76;68.57;99883.05;2219553;78;33097;-65
2021/04/08 00:47:09;;;;;;;10.40;8.58;;;;;;;2.81;68.64;99882.93;2219976;78;29153;-65
2021/04/08 00:50:13;;;;;;;12.25;9.78;;;;;;;2.83;68.76;99889.06;2219438;80;27727;-67
2021/04/08 00:53:19;;;;;;;15.93;10.40;;;;;;;2.85;68.73;99891.22;2219277;78;28827;-65
2021/04/08 00:56:22;;;;;;;15.53;10.78;;;;;;;2.85;68.93;99892.07;2217158;80;31347;-65
2021/04/08 00:59:24;;;;;;;17.27;11.18;;;;;;;2.85;69.13;99886.78;2233987;78;33103;-64
2021/04/08 01:02:26;;;;;;;15.30;11.53;;;;;;;2.85;69.19;99897.83;2229539;79;29258;-64
2021/04/08 01:05:29;;;;;;;13.88;11.88;;;;;;;2.85;69.21;99899.16;2228426;79;27584;-66
2021/04/08 01:08:31;;;;;;;15.63;12.20;;;;;;;2.85;69.39;99893.86;2234293;78;28725;-66
2021/04/08 01:11:33;;;;;;;12.82;11.35;;;;;;;2.87;69.35;99903.95;2238611;78;31043;-66
2021/04/08 01:14:36;;;;;;;14.68;11.63;;;;;;;2.87;69.57;99906.60;2229832;79;33145;-65
2021/04/08 01:17:58;;;;;;;13.90;10.23;;;;;;;2.86;69.67;99903.07;2238878;78;29155;-66
2021/04/08 01:21:43;;;;;;;12.47;9.80;;;;;;;2.87;69.67;99906.60;2255680;78;27733;-66
2021/04/08 01:25:05;;;;;;;11.05;9.80;;;;;;;2.89;69.80;99910.94;2229401;79;29256;-64
2021/04/08 01:28:19;;;;;;;11.93;9.18;;;;;;;2.94;69.77;99908.64;2225074;79;31134;-66
2021/04/08 01:31:21;;;;;;;11.05;9.95;;;;;;;2.98;69.71;99905.88;2222380;79;32533;-67
2021/04/08 01:34:23;;;;;;;11.00;9.00;;;;;;;3.03;69.64;99902.67;2209449;80;29155;-64
2021/04/08 01:37:33;;;;;;;10.82;9.15;;;;;;;3.04;69.71;99911.03;2138657;81;27715;-64
2021/04/08 01:40:35;;;;;;;11.12;9.53;;;;;;;3.02;69.65;99908.87;2111683;84;29168;-64
2021/04/08 01:43:44;;;;;;;12.80;9.43;;;;;;;3.01;69.77;99907.13;2120115;82;32148;-64
2021/04/08 01:47:09;;;;;;;13.13;10.43;;;;;;;2.99;69.79;99908.94;2212950;79;33130;-64
2021/04/08 01:50:12;;;;;;;12.73;10.03;;;;;;;3.00;69.83;99920.38;2223026;80;29605;-64
2021/04/08 01:53:16;;;;;;;13.15;10.00;;;;;;;2.99;69.86;99922.61;2213015;79;27709;-64
2021/04/08 01:56:21;;;;;;;11.57;10.23;;;;;;;3.00;69.91;99930.96;2224367;79;28956;-64
2021/04/08 01:59:24;;;;;;;12.58;10.35;;;;;;;3.00;69.98;99928.31;2221527;78;31648;-64
2021/04/08 02:02:27;;;;;;;12.15;9.70;;;;;;;2.99;70.06;99932.75;2217489;78;33115;-65
2021/04/08 02:05:29;;;;;;;11.88;10.03;;;;;;;2.99;70.14;99927.90;2217159;80;29168;-64
2021/04/08 02:08:31;;;;;;;12.10;9.93;;;;;;;2.96;70.29;99927.53;2247893;78;27716;-64
2021/04/08 02:11:36;;;;;;;15.83;11.90;;;;;;;2.94;70.22;99934.63;2259462;78;28815;-65
2021/04/08 02:14:40;;;;;;;12.63;10.10;;;;;;;2.95;70.31;99943.45;2235354;78;31199;-64
2021/04/08 02:17:44;;;;;;;13.45;9.83;;;;;;;2.94;70.33;99937.75;2237912;78;33570;-63
2021/04/08 02:20:49;;;;;;;12.50;8.88;;;;;;;2.95;70.28;99936.84;2259151;78;29168;-65
2021/04/08 02:23:51;;;;;;;11.68;9.90;;;;;;;2.98;70.43;99942.92;2259447;78;36805;-65
2021/04/08 02:26:54;;;;;;;12.28;9.78;;;;;;;3.02;70.33;99943.70;2259319;78;28713;-63
2021/04/08 02:29:57;;;;;;;11.97;8.98;;;;;;;3.07;70.32;99944.91;2212861;80;30273;-64
2021/04/08 02:32:59;;;;;;;15.50;8.95;;;;;;;3.11;70.22;99951.44;2225455;79;33105;-64
2021/04/08 02:36:02;;;;;;;10.58;8.95;;;;;;;3.13;70.33;99951.39;2228798;79;29162;-64
2021/04/08 02:39:07;;;;;;;11.25;8.93;;;;;;;3.16;70.45;99960.58;2178232;79;27729;-64
2021/04/08 02:42:09;;;;;;;15.93;9.43;;;;;;;3.14;70.32;99958.42;2220036;80;28831;-64
2021/04/08 02:45:13;;;;;;;13.03;8.03;;;;;;;3.15;70.45;99958.38;2190679;80;32145;-63
2021/04/08 02:48:17;;;;;;;11.97;8.20;;;;;;;3.13;70.36;99960.66;2209875;79;34013;-65
2021/04/08 02:51:36;;;;;;;12.73;8.23;;;;;;;3.11;70.36;99962.03;2209278;80;29225;-64
2021/04/08 02:54:49;;;;;;;11.25;7.75;;;;;;;3.09;70.32;99970.45;2231452;79;28164;-63
2021/04/08 02:58:03;;;;;;;15.35;7.60;;;;;;;3.09;70.47;99972.21;2228073;79;29771;-63
2021/04/08 03:01:11;;;;;;;12.53;6.10;;;;;;;3.08;70.46;99977.08;2171633;81;31144;-63
2021/04/08 03:04:16;;;;;;;12.82;7.22;;;;;;;3.07;70.45;99976.67;2192182;80;33124;-64
2021/04/08 03:07:31;;;;;;;11.85;6.42;;;;;;;3.08;70.40;99983.27;2219281;80;29169;-63
2021/04/08 03:10:33;;;;;;;11.45;6.25;;;;;;;3.10;70.45;99985.86;2204552;80;27783;-64
2021/04/08 03:13:40;;;;;;;11.33;6.42;;;;;;;3.12;70.40;99991.99;2218811;80;28886;-63
2021/04/08 03:16:43;;;;;;;12.18;6.10;;;;;;;3.13;70.36;99995.06;2180747;81;31180;-64
2021/04/08 03:19:45;;;;;;;9.00;5.72;;;;;;;3.15;70.33;99999.87;2219459;80;33117;-64
2021/04/08 03:22:49;;;;;;;10.93;6.15;;;;;;;3.15;70.24;100002.05;2218905;80;29147;-65
2021/04/08 03:25:52;;;;;;;6.97;4.97;;;;;;;3.16;70.18;100009.55;2218621;79;27693;-64
2021/04/08 03:28:55;;;;;;;9.53;5.75;;;;;;;3.16;70.20;100020.14;2187359;79;28812;-63
2021/04/08 03:31:58;;;;;;;13.08;5.55;;;;;;;3.15;70.07;100012.63;2180602;80;31243;-64
2021/04/08 03:35:00;;;;;;;16.40;5.15;;;;;;;3.16;70.03;100021.46;2205265;80;33824;-64
2021/04/08 03:38:02;;;;;;;15.30;4.60;;;;;;;3.16;70.08;100014.38;2219125;78;30412;-64
2021/04/08 03:41:04;;;;;;;11.30;4.45;;;;;;;3.16;69.91;100024.96;2218382;80;27809;-64
2021/04/08 03:44:09;;;;;;;13.70;3.40;;;;;;;3.15;69.83;100025.87;2193302;80;28814;-66
2021/04/08 03:47:13;;;;;;;9.95;3.33;;;;;;;3.13;69.52;100033.44;2219440;80;31138;-65
2021/04/08 03:50:16;;;;;;;7.90;3.22;;;;;;;3.11;69.43;100031.27;2218955;80;33104;-63
2021/04/08 03:53:19;;;;;;;12.23;3.52;;;;;;;3.08;69.31;100040.16;2197653;80;29090;-64
2021/04/08 03:56:22;;;;;;;11.35;3.60;;;;;;;3.06;69.09;100043.77;2219527;80;27678;-63
2021/04/08 03:59:25;;;;;;;10.65;3.33;;;;;;;3.02;69.04;100062.35;2236153;79;28864;-65
2021/04/08 04:02:28;;;;;;;10.98;3.17;;;;;;;3.00;69.01;100055.33;2240493;79;31077;-63
2021/04/08 04:05:30;;;;;;;6.75;2.87;;;;;;;2.99;68.73;100064.17;2209717;79;33918;-65
2021/04/08 04:08:33;;;;;;;7.67;2.98;;;;;;;2.98;68.71;100071.72;2209197;80;29143;-63
2021/04/08 04:11:39;;;;;;;11.70;3.30;;;;;;;2.96;68.68;100078.82;2239744;79;27672;-63
2021/04/08 04:14:43;;;;;;;8.68;2.80;;;;;;;2.98;68.71;100083.16;2198785;80;28881;-64
2021/04/08 04:17:46;;;;;;;10.23;3.27;;;;;;;2.99;68.63;100087.98;2219175;80;31578;-63
2021/04/08 04:20:49;;;;;;;12.03;3.42;;;;;;;3.00;68.51;100093.27;2219578;80;34008;-62
2021/04/08 04:23:51;;;;;;;9.48;3.30;;;;;;;3.02;68.66;100098.52;2254645;78;29158;-62
2021/04/08 04:26:56;;;;;;;8.43;3.37;;;;;;;3.06;68.66;100106.81;2258822;78;28240;-63
2021/04/08 04:29:59;;;;;;;6.78;2.72;;;;;;;3.08;68.61;100104.12;2257184;78;28845;-62
2021/04/08 04:33:02;;;;;;;15.48;2.95;;;;;;;3.08;68.46;100108.98;2259565;78;31141;-69
2021/04/08 04:36:06;;;;;;;13.10;3.35;;;;;;;3.09;68.48;100109.40;2186583;79;33137;-63
2021/04/08 04:39:09;;;;;;;11.35;4.08;;;;;;;3.11;68.41;100119.94;2246775;78;29103;-64
2021/04/08 04:42:11;;;;;;;13.95;3.83;;;;;;;3.13;68.60;100123.42;2259042;78;27748;-63
2021/04/08 04:45:15;;;;;;;13.45;3.55;;;;;;;3.15;68.37;100120.30;2233273;78;28824;-64
2021/04/08 04:48:17;;;;;;;13.40;3.83;;;;;;;3.14;68.33;100130.03;2219499;80;31177;-63
2021/04/08 04:51:19;;;;;;;13.18;3.30;;;;;;;3.13;68.36;100129.61;2219783;79;33059;-64
2021/04/08 04:54:21;;;;;;;9.35;4.00;;;;;;;3.15;68.35;100133.06;2219303;78;29174;-64
2021/04/08 04:57:23;;;;;;;12.25;3.67;;;;;;;3.18;68.44;100132.15;2217428;80;27637;-64
2021/04/08 05:00:26;;;;;;;7.47;3.12;;;;;;;3.22;68.34;100141.77;2217149;79;28828;-64
2021/04/08 05:03:28;;;;;;;8.33;3.37;;;;;;;3.29;68.36;100139.86;2219194;78;31171;-63
2021/04/08 05:06:30;;;;;;;10.28;3.58;;;;;;;3.38;68.28;100142.75;2259304;78;33184;-63
2021/04/08 05:09:32;;;;;;;8.53;3.12;;;;;;;3.47;68.18;100147.83;2259435;78;29149;-65
2021/04/08 05:12:35;;;;;;;9.70;3.98;;;;;;;3.56;68.14;100148.07;2239699;78;27729;-64
2021/04/08 05:15:38;;;;;;;10.23;4.10;;;;;;;3.66;68.18;100145.61;2219359;78;28831;-62
2021/04/08 05:18:41;;;;;;;14.45;5.58;;;;;;;3.75;67.73;100141.87;2253275;78;30602;-63
2021/04/08 05:21:48;;;;;;;15.70;4.30;;;;;;;3.83;67.71;100150.96;2258164;78;28791;-61
2021/04/08 05:24:53;;;;;;;9.40;4.55;;;;;;;3.94;67.83;100152.45;2239675;78;29150;-63
2021/04/08 05:27:55;;;;;;;8.38;4.25;;;;;;;4.06;67.71;100153.92;2219514;80;27668;-63
2021/04/08 05:30:57;;;;;;;9.23;4.92;;;;;;;4.17;67.78;100159.40;2219471;80;28879;-64
2021/04/08 05:33:59;;;;;;;14.38;4.75;;;;;;;4.28;67.73;100159.13;2245649;78;31248;-63
2021/04/08 05:37:01;;;;;;;12.88;4.17;;;;;;;4.39;67.61;100165.02;2256149;78;33173;-63
2021/04/08 05:40:04;;;;;;;14.28;3.83;;;;;;;4.45;67.14;100162.68;2217239;80;29170;-63
2021/04/08 05:43:06;;;;;;;11.93;3.98;;;;;;;4.51;66.92;100165.15;2216932;80;27717;-63
2021/04/08 05:46:12;;;;;;;10.20;3.77;;;;;;;4.60;66.89;100179.95;2223807;78;28945;-64
2021/04/08 05:49:14;;;;;;;12.80;3.35;;;;;;;4.71;66.47;100178.75;2252457;79;32014;-63
2021/04/08 05:52:16;;;;;;;16.00;4.62;;;;;;;4.94;66.65;100183.00;2253823;79;33125;-64
2021/04/08 05:55:19;;;;;;;9.83;3.50;;;;;;;5.13;66.07;100187.34;2253460;79;30026;-64
2021/04/08 05:58:21;;;;;;;10.72;3.72;;;;;;;5.24;65.04;100195.86;2228627;78;27656;-64
2021/04/08 06:01:23;;;;;;;10.25;3.90;;;;;;;5.35;65.12;100197.32;2219552;78;28916;-64
2021/04/08 06:04:26;;;;;;;8.53;3.45;;;;;;;5.48;65.05;100208.88;2220378;78;31150;-64
2021/04/08 06:07:28;;;;;;;12.50;4.87;;;;;;;5.57;64.51;100206.39;2246434;78;33115;-65
2021/04/08 06:10:30;;;;;;;12.78;4.67;;;;;;;5.63;64.44;100219.95;2256888;78;28058;-65
2021/04/08 06:13:32;;;;;;;12.68;3.65;;;;;;;5.69;64.47;100222.88;2258938;78;27615;-65
2021/04/08 06:16:34;;;;;;;12.78;4.65;;;;;;;5.80;64.46;100230.05;2258233;78;28892;-64
2021/04/08 06:19:36;;;;;;;12.70;3.77;;;;;;;5.88;63.91;100222.72;2219808;78;31332;-66
2021/04/08 06:22:38;;;;;;;10.30;3.47;;;;;;;6.08;64.08;100229.23;2219156;80;33069;-64
2021/04/08 06:25:40;;;;;;;11.83;4.92;;;;;;;6.20;63.52;100233.29;2246469;78;29167;-64
2021/04/08 06:28:42;;;;;;;11.22;4.60;;;;;;;6.28;62.95;100230.37;2236372;78;27744;-65
2021/04/08 06:31:44;;;;;;;11.83;4.55;;;;;;;6.28;62.88;100238.36;2249798;78;28820;-64
2021/04/08 06:34:47;;;;;;;10.23;4.65;;;;;;;6.34;62.47;100240.35;2259299;78;30939;-65
2021/04/08 06:37:51;;;;;;;11.85;4.95;;;;;;;6.32;62.25;100238.64;2254794;78;34072;-65
2021/04/08 06:40:56;;;;;;;10.05;4.78;;;;;;;6.29;62.21;100246.27;2248478;78;29278;-65
2021/04/08 06:43:59;;;;;;;;;;;;;;;6.20;61.80;100252.77;2221713;80;27664;-65
2021/04/08 06:47:04;;;;;;;16.95;5.42;;;;;;;6.07;62.02;100262.91;2227624;78;29373;-66
2021/04/08 06:50:09;;;;;;;12.23;4.90;;;;;;;5.96;61.94;100266.83;2198669;80;31627;-65
2021/04/08 06:53:14;;;;;;;15.05;6.15;;;;;;;5.89;61.90;100267.00;2196108;80;33105;-66
2021/04/08 06:56:16;;;;;;;13.15;5.22;;;;;;;5.85;61.95;100271.14;2215794;80;30203;-64
2021/04/08 06:59:18;;;;;;;11.53;5.12;;;;;;;5.81;61.93;100274.80;2191481;80;27729;-67
2021/04/08 07:02:22;;;;;;;11.48;5.25;;;;;;;5.75;61.88;100272.73;2219225;80;29338;-67
2021/04/08 07:05:24;;;;;;;7.85;4.35;;;;;;;5.72;62.22;100287.44;2220693;78;30554;-71
2021/04/08 07:08:28;;;;;;;9.80;4.72;;;;;;;5.68;61.89;100286.25;2248927;78;34008;-67
2021/04/08 07:11:30;;;;;;;10.38;4.97;;;;;;;5.61;62.35;100283.80;2258524;78;29164;-64
2021/04/08 07:14:32;;;;;;;13.08;4.83;;;;;;;5.68;62.43;100296.44;2259842;78;27579;-65
2021/04/08 07:17:35;;;;;;;9.03;4.65;;;;;;;5.77;62.21;100306.78;2257061;78;29578;-67
2021/04/08 07:20:37;;;;;;;10.72;5.35;;;;;;;5.80;62.25;100310.27;2249934;78;31140;-65
2021/04/08 07:23:39;;;;;;;11.18;4.60;;;;;;;5.81;62.03;100310.69;2221471;78;34000;-69
2021/04/08 07:26:58;;;;;;;15.15;5.20;;;;;;;5.84;61.69;100306.14;2220693;78;29926;-68
2021/04/08 07:30:02;;;;;;;11.90;4.55;;;;;;;5.91;62.07;100327.66;2239848;78;27717;-71
2021/04/08 07:33:05;;;;;;;13.75;4.85;;;;;;;6.04;62.05;100322.84;2229424;77;28878;-62
2021/04/08 07:36:08;;;;;;;6.22;4.45;;;;;;;6.06;61.44;100332.98;2258178;78;31142;-68
2021/04/08 07:39:18;;;;;;;11.73;4.85;;;;;;;5.93;61.05;100337.78;2258061;78;33185;-65
2021/04/08 07:42:28;;;;;;;13.05;5.17;;;;;;;5.85;61.54;100340.26;2247550;78;29228;-65
2021/04/08 07:45:33;;;;;;;13.15;5.03;;;;;;;5.81;61.57;100352.75;2218761;80;27907;-63
2021/04/08 07:48:36;;;;;;;9.90;4.47;;;;;;;5.74;61.67;100353.38;2244217;78;29711;-65
2021/04/08 07:51:38;;;;;;;12.03;5.22;;;;;;;5.65;61.52;100360.30;2259473;78;32526;-65
2021/04/08 07:55:02;;;;;;;12.98;5.45;;;;;;;5.60;61.75;100364.88;2259587;78;33145;-64
2021/04/08 07:58:16;;;;;;;12.78;4.37;;;;;;;5.67;62.09;100374.43;2259608;78;29247;-65
2021/04/08 08:01:21;;;;;;;;;;;;;;;5.85;61.61;100375.67;2261248;78;27557;-65
2021/04/08 08:04:26;;;;;;;9.43;3.70;;;;;;;5.93;61.52;100380.77;2244100;78;28815;-64
2021/04/08 08:07:28;;;;;;;8.75;2.95;;;;;;;6.06;61.60;100383.98;2258287;78;31120;-64
2021/04/08 08:10:31;;;;;;;9.03;3.58;;;;;;;6.29;61.23;100393.08;2258694;78;33975;-65
2021/04/08 08:13:52;;;;;;;11.53;4.60;;;;;;;6.49;61.26;100393.78;2258542;78;29165;-64
2021/04/08 08:17:07;;;;;;;9.83;4.12;;;;;;;6.74;60.84;100396.53;2258694;78;27702;-65
2021/04/08 08:20:11;;;;;;;16.45;7.22;;;;;;;6.99;60.69;100398.38;2259007;78;28836;-65
2021/04/08 08:23:13;;;;;;;19.80;8.55;;;;;;;7.10;60.12;100405.58;2258215;78;32016;-66
2021/04/08 08:26:29;;;;;;;17.48;9.00;;;;;;;7.11;59.94;100407.31;2258689;78;33089;-65
2021/04/08 08:29:31;;;;;;;17.23;4.50;;;;;;;7.18;59.82;100410.64;2258719;78;29192;-65
2021/04/08 08:32:33;;;;;;;14.40;6.42;;;;;;;7.17;58.13;100401.34;2258832;78;27637;-65
2021/04/08 08:35:36;;;;;;;12.85;5.30;;;;;;;7.29;59.34;100421.80;2257997;78;28453;-66
2021/04/08 08:38:38;;;;;;;17.30;6.92;;;;;;;7.37;58.63;100413.98;2258661;78;31209;-65
2021/04/08 08:41:44;;;;;;;15.93;6.25;;;;;;;7.25;58.53;100428.62;2228915;78;33162;-65
2021/04/08 08:44:47;;;;;;;16.10;7.47;;;;;;;7.11;58.41;100432.63;2216658;80;29166;-65
2021/04/08 08:47:51;;;;;;;25.70;12.18;;;;;;;6.99;57.80;100432.56;2216807;80;28123;-65
2021/04/08 08:50:54;;;;;;;14.38;8.45;;;;;;;6.90;58.40;100449.30;2217742;78;28828;-65
2021/04/08 08:53:57;;;;;;;17.67;7.05;;;;;;;6.90;58.52;100446.16;2218261;80;33415;-65
2021/04/08 08:57:01;;;;;;;9.15;5.35;;;;;;;6.95;58.73;100448.22;2218614;80;33119;-65
2021/04/08 09:00:26;;;;;;;10.93;5.33;;;;;;;6.91;58.03;100463.88;2225889;77;30053;-66
2021/04/08 09:03:28;;;;;;;12.78;5.45;;;;;;;6.86;58.03;100464.52;2104476;84;27773;-62
2021/04/08 09:06:31;;;;;;;11.22;5.22;;;;;;;6.83;58.21;100473.45;2103990;84;28838;-64
2021/04/08 09:09:36;;;;;;;10.25;4.87;;;;;;;6.87;58.04;100475.55;2104435;84;31178;-64
2021/04/08 09:12:39;;;;;;;15.93;7.30;;;;;;;6.93;58.34;100472.70;2080193;84;33995;-64
2021/04/08 09:15:42;;;;;;;9.55;5.10;;;;;;;7.09;58.23;100470.43;2104403;84;29379;-65
2021/04/08 09:19:06;;;;;;;15.15;6.72;;;;;;;7.08;57.10;100479.34;2104586;84;27710;-64
2021/04/08 09:22:11;;;;;;;8.45;4.92;;;;;;;7.02;57.87;100491.52;2104496;84;28832;-64
2021/04/08 09:25:16;;;;;;;15.00;5.70;;;;;;;6.95;58.17;100497.50;2104580;84;31162;-65
2021/04/08 09:28:19;;;;;;;22.48;8.28;;;;;;;6.87;58.05;100500.84;2104437;84;34064;-64
2021/04/08 09:31:25;;;;;;;24.92;8.18;;;;;;;6.82;58.12;100502.80;2104440;84;30594;-64
2021/04/08 09:34:27;;;;;;;16.77;6.33;;;;;;;6.79;58.00;100506.41;2148676;82;27851;-64
2021/04/08 09:37:54;;;;;;;29.32;10.75;;;;;;;6.79;58.42;100513.54;2149497;82;28812;-64
2021/04/08 09:40:59;;;;;;;16.97;6.55;;;;;;;6.79;58.21;100510.41;2149999;82;31668;-64
2021/04/08 09:44:01;;;;;;;21.77;8.08;;;;;;;6.75;58.16;100515.88;2150349;82;33638;-64
2021/04/08 09:47:03;;;;;;;23.45;8.58;;;;;;;6.61;58.08;100525.63;2150593;82;29174;-64
2021/04/08 09:50:07;;;;;;;19.92;8.08;;;;;;;6.48;57.98;100527.30;2150780;82;27940;-64
2021/04/08 09:53:10;;;;;;;17.73;6.30;;;;;;;6.38;58.37;100533.81;2150749;82;28057;-64
2021/04/08 09:56:12;;;;;;;18.80;7.75;;;;;;;6.39;58.65;100531.09;2150589;82;31160;-64
2021/04/08 09:59:16;;;;;;;18.80;7.15;;;;;;;6.48;58.69;100540.59;2150557;81;35462;-64
2021/04/08 10:02:18;;;;;;;15.60;6.50;;;;;;;6.57;58.59;100534.14;2150608;82;30128;-64
2021/04/08 10:05:21;;;;;;;11.38;4.37;;;;;;;6.69;58.19;100535.57;2150719;82;27740;-63
2021/04/08 10:08:26;;;;;;;18.07;5.78;;;;;;;6.69;58.03;100545.78;2150799;81;31111;-64
2021/04/08 10:11:29;;;;;;;;;;;;;;;6.74;57.97;100558.06;2153612;82;31146;-63
2021/04/08 10:14:33;;;;;;;18.17;6.10;;;;;;;6.77;58.12;100562.86;2150762;82;33992;-65
2021/04/08 10:17:37;;;;;;;19.98;8.93;;;;;;;6.74;57.96;100553.62;2150588;82;30075;-64
2021/04/08 10:20:41;;;;;;;19.40;7.23;;;;;;;6.71;57.69;100564.80;2150939;82;27664;-65
2021/04/08 10:23:49;;;;;;;17.48;6.90;;;;;;;6.73;58.03;100569.63;2150673;82;30300;-64
2021/04/08 10:26:52;;;;;;;15.58;5.67;;;;;;;6.74;57.63;100566.05;2148001;82;32554;-64
2021/04/08 10:29:55;;;;;;;12.33;6.00;;;;;;;6.77;57.80;100588.16;2112515;84;34448;-65
2021/04/08 10:32:57;;;;;;;14.95;7.33;;;;;;;6.71;58.34;100589.65;2111722;84;30384;-65
2021/04/08 10:35:59;;;;;;;16.55;6.67;;;;;;;6.72;58.67;100594.06;2112568;84;27589;-65
2021/04/08 10:39:14;;;;;;;15.83;5.22;;;;;;;6.65;58.86;100605.78;2143481;82;30237;-64
2021/04/08 10:42:17;;;;;;;17.40;5.67;;;;;;;6.49;58.46;100610.69;2150185;82;31137;-64
2021/04/08 10:45:20;;;;;;;32.20;13.83;;;;;;;6.33;58.82;100619.53;2150714;82;33261;-65
2021/04/08 10:48:25;;;;;;;15.20;5.85;;;;;;;6.33;59.34;100616.87;2150907;82;28418;-64
2021/04/08 10:51:28;;;;;;;16.90;8.38;;;;;;;6.45;59.70;100613.90;2150913;82;27716;-65
2021/04/08 10:54:34;;;;;;;21.95;8.13;;;;;;;6.75;59.65;100623.27;2150777;82;28815;-64
2021/04/08 10:57:36;;;;;;;20.68;7.80;;;;;;;7.09;59.55;100612.95;2150925;82;31137;-63
2021/04/08 11:00:43;;;;;;;20.32;6.92;;;;;;;7.41;59.06;100620.86;2149895;82;33149;-65
2021/04/08 11:03:45;;;;;;;13.32;5.75;;;;;;;7.64;58.51;100619.27;2150825;82;29169;-64
2021/04/08 11:06:49;;;;;;;17.62;5.72;;;;;;;7.76;58.18;100625.52;2150795;82;28212;-64
2021/04/08 11:09:53;;;;;;;16.82;6.72;;;;;;;7.67;57.50;100633.84;2150820;82;29711;-63
2021/04/08 11:12:56;;;;;;;29.90;12.63;;;;;;;7.48;57.91;100639.75;2148138;82;31252;-64
2021/04/08 11:15:58;;;;;;;44.70;17.67;;;;;;;7.34;58.06;100639.31;2188395;81;33177;-64
2021/04/08 11:19:02;;;;;;;33.78;12.35;;;;;;;7.32;58.04;100647.34;2188372;81;28780;-64
2021/04/08 11:22:04;;;;;;;39.00;15.18;;;;;;;7.42;58.70;100645.27;2157805;81;27735;-64
2021/04/08 11:25:11;;;;;;;50.52;20.90;;;;;;;7.55;58.88;100639.09;2173343;81;28539;-64
2021/04/08 11:28:13;;;;;;;39.75;14.78;;;;;;;7.72;58.91;100646.09;2125158;82;32125;-63
2021/04/08 11:31:19;;;;;;;29.37;13.45;;;;;;;7.96;58.72;100652.02;2164214;81;33197;-64
2021/04/08 11:34:21;;;;;;;19.07;8.95;;;;;;;8.19;58.89;100641.42;2168479;81;29899;-64
2021/04/08 11:37:37;;;;;;;18.73;9.45;;;;;;;8.42;58.50;100634.42;2150862;81;27589;-64
2021/04/08 11:40:43;;;;;;;51.73;27.70;;;;;;;8.73;58.53;100640.50;2152479;81;28834;-65
2021/04/08 11:43:50;;;;;;;33.73;17.67;;;;;;;8.90;58.11;100642.09;2172045;81;33426;-64
2021/04/08 11:46:53;;;;;;;28.85;14.95;;;;;;;9.13;57.52;100632.31;2150437;82;33676;-64
2021/04/08 11:49:55;;;;;;;24.95;12.88;;;;;;;9.34;57.44;100638.66;2173076;81;29160;-65
2021/04/08 11:53:10;;;;;;;27.93;8.83;;;;;;;9.54;57.26;100641.87;2150879;82;27760;-65
2021/04/08 11:56:31;;;;;;;13.13;3.07;;;;;;;9.71;55.74;100642.99;2151092;81;28900;-65
2021/04/08 11:59:34;;;;;;;19.05;8.13;;;;;;;9.75;55.93;100641.05;2167163;81;31149;-67
2021/04/08 12:02:40;;;;;;;12.23;4.85;;;;;;;9.78;55.52;100644.95;2150535;82;33187;-66
2021/04/08 12:05:43;;;;;;;20.05;7.17;;;;;;;9.76;54.97;100650.83;2150743;82;30321;-65
2021/04/08 12:08:50;;;;;;;20.52;7.75;;;;;;;9.56;54.63;100657.39;2150933;82;27716;-65
2021/04/08 12:11:55;;;;;;;17.57;6.50;;;;;;;9.39;54.31;100655.84;2150831;82;29765;-65
2021/04/08 12:15:07;;;;;;;14.95;5.17;;;;;;;9.19;54.52;100656.59;2150821;82;30998;-64
2021/04/08 12:18:19;;;;;;;23.83;8.55;;;;;;;9.04;54.23;100660.73;2150632;82;33082;-64
2021/04/08 12:21:25;;;;;;;23.40;10.03;;;;;;;8.86;54.15;100662.27;2150744;82;30141;-64
2021/04/08 12:24:27;;;;;;;17.05;8.35;;;;;;;8.71;54.40;100669.92;2150956;82;27638;-63
2021/04/08 12:27:29;;;;;;;21.10;7.45;;;;;;;8.68;54.44;100671.39;2119718;82;28846;-64
2021/04/08 12:30:32;;;;;;;20.25;9.03;;;;;;;8.69;54.78;100674.44;2150696;82;31219;-64
2021/04/08 12:33:37;;;;;;;15.32;5.75;;;;;;;8.71;54.21;100676.59;2151052;82;33169;-62
2021/04/08 12:36:39;;;;;;;12.53;4.67;;;;;;;8.74;54.00;100681.83;2146311;82;29230;-63
2021/04/08 12:39:41;;;;;;;11.97;5.55;;;;;;;8.72;53.72;100689.50;2173711;81;27712;-62
2021/04/08 12:42:44;;;;;;;16.87;6.40;;;;;;;8.70;54.03;100686.02;2173365;81;29812;-63
2021/04/08 12:45:46;;;;;;;19.50;8.70;;;;;;;8.73;53.68;100690.77;2168903;81;30761;-63
2021/04/08 12:48:49;;;;;;;13.78;4.55;;;;;;;8.75;53.46;100689.41;2134559;82;33063;-64
2021/04/08 12:51:51;;;;;;;13.43;5.80;;;;;;;8.69;53.08;100694.95;2157594;80;29169;-62
2021/04/08 12:54:53;;;;;;;34.15;13.83;;;;;;;8.56;53.32;100694.05;2173727;80;27744;-62
2021/04/08 12:57:56;;;;;;;16.15;4.95;;;;;;;8.51;53.09;100698.23;2172821;80;28792;-61
2021/04/08 13:00:58;;;;;;;14.83;5.12;;;;;;;8.39;53.27;100699.92;2175743;80;31134;-62
2021/04/08 13:04:00;;;;;;;10.72;4.47;;;;;;;8.29;53.03;100707.84;2175882;80;34462;-61
2021/04/08 13:07:02;;;;;;;14.15;6.30;;;;;;;8.24;53.12;100709.79;2172939;80;29201;-63
2021/04/08 13:10:07;;;;;;;10.65;4.55;;;;;;;8.26;52.90;100714.62;2170192;80;27706;-65
2021/04/08 13:13:10;;;;;;;11.85;4.65;;;;;;;8.15;52.96;100730.98;2175145;80;33035;-62
2021/04/08 13:16:13;;;;;;;15.98;6.22;;;;;;;8.02;53.65;100734.53;2165691;80;31149;-58
2021/04/08 13:19:16;;;;;;;13.30;5.92;;;;;;;7.92;54.10;100732.61;2173510;80;33123;-61
2021/04/08 13:22:19;;;;;;;17.25;7.45;;;;;;;7.87;54.37;100738.55;2175311;80;29224;-62
2021/04/08 13:25:24;;;;;;;14.05;4.67;;;;;;;7.89;54.42;100740.70;2169426;80;28394;-62
2021/04/08 13:28:28;;;;;;;22.40;7.03;;;;;;;7.88;54.15;100742.96;2165919;80;28873;-62
2021/04/08 13:31:31;;;;;;;14.75;5.80;;;;;;;7.93;54.70;100744.14;2172506;80;30303;-62
2021/04/08 13:34:35;;;;;;;12.15;5.65;;;;;;;8.02;54.50;100739.87;2178284;80;34445;-64
2021/04/08 13:37:37;;;;;;;12.13;5.20;;;;;;;8.16;54.36;100740.73;2176056;80;29255;-62
2021/04/08 13:40:40;;;;;;;15.38;4.15;;;;;;;8.27;54.67;100748.40;2175175;80;27761;-62
2021/04/08 13:43:43;;;;;;;10.70;3.95;;;;;;;8.42;54.70;100748.36;2170620;80;29732;-63
2021/04/08 13:46:46;;;;;;;8.95;3.40;;;;;;;8.62;54.90;100749.05;2175747;80;31168;-63
2021/04/08 13:49:51;;;;;;;10.15;3.50;;;;;;;8.78;54.29;100740.91;2171775;80;33106;-61
2021/04/08 13:52:55;;;;;;;9.93;3.08;;;;;;;8.99;54.23;100744.20;2158541;81;44419;-62
2021/04/08 13:55:58;;;;;;;12.43;4.05;;;;;;;9.14;53.93;100746.80;2170962;80;27705;-64
2021/04/08 13:59:01;;;;;;;9.33;3.87;;;;;;;9.19;53.34;100740.80;2119919;82;29762;-64
2021/04/08 14:02:04;;;;;;;11.48;3.83;;;;;;;9.25;53.05;100737.91;2115855;83;32341;-63
2021/04/08 14:05:09;;;;;;;21.02;12.03;;;;;;;9.25;52.84;100744.59;2119536;82;33305;-64
2021/04/08 14:08:11;;;;;;;14.38;4.58;;;;;;;9.26;53.06;100741.87;2121065;82;29152;-64
2021/04/08 14:11:16;;;;;;;11.20;3.98;;;;;;;9.32;52.50;100738.55;2118058;82;27650;-64
2021/04/08 14:14:20;;;;;;;12.40;4.63;;;;;;;9.29;52.17;100743.55;2117756;82;29801;-64
2021/04/08 14:17:22;;;;;;;12.93;3.77;;;;;;;9.28;52.41;100742.67;2133128;82;31162;-65
2021/04/08 14:20:25;;;;;;;17.60;3.33;;;;;;;9.30;52.35;100744.41;2114078;83;33119;-65
2021/04/08 14:23:28;;;;;;;7.97;3.12;;;;;;;9.30;51.63;100745.75;2107761;84;29284;-63